sensor_id;sensor_type;location;lat;lon;timestamp;P1;durP1;ratioP1;P2;durP2;ratioP2
22046;SDS011;11187;49.412;20.956;2023-06-26T00:00:42;28.25;;;21.98;;
22046;SDS011;11187;49.412;20.956;2023-06-26T00:03:29;21.67;;;19.50;;
22046;SDS011;11187;49.412;20.956;2023-06-26T00:06:03;23.48;;;21.38;;
22046;SDS011;11187;49.412;20.956;2023-06-26T00:08:54;24.10;;;21.70;;
22046;SDS011;11187;49.412;20.956;2023-06-26T00:11:29;30.40;;;20.73;;
22046;SDS011;11187;49.412;20.956;2023-06-26T00:14:17;24.60;;;22.52;;
22046;SDS011;11187;49.412;20.956;2023-06-26T00:16:53;22.88;;;20.48;;
22046;SDS011;11187;49.412;20.956;2023-06-26T00:19:41;22.50;;;20.50;;
22046;SDS011;11187;49.412;20.956;2023-06-26T00:22:14;23.58;;;21.08;;
22046;SDS011;11187;49.412;20.956;2023-06-26T00:25:01;23.17;;;20.60;;
22046;SDS011;11187;49.412;20.956;2023-06-26T00:27:34;23.23;;;20.90;;
22046;SDS011;11187;49.412;20.956;2023-06-26T00:30:28;23.60;;;21.30;;
22046;SDS011;11187;49.412;20.956;2023-06-26T00:33:02;21.90;;;19.65;;
22046;SDS011;11187;49.412;20.956;2023-06-26T00:35:56;23.40;;;21.10;;
22046;SDS011;11187;49.412;20.956;2023-06-26T00:38:29;23.48;;;21.38;;
22046;SDS011;11187;49.412;20.956;2023-06-26T00:41:23;23.92;;;21.73;;
22046;SDS011;11187;49.412;20.956;2023-06-26T00:44:17;23.13;;;20.80;;
22046;SDS011;11187;49.412;20.956;2023-06-26T00:47:11;22.75;;;20.50;;
22046;SDS011;11187;49.412;20.956;2023-06-26T00:49:48;23.13;;;20.85;;
22046;SDS011;11187;49.412;20.956;2023-06-26T00:52:35;23.90;;;21.55;;
22046;SDS011;11187;49.412;20.956;2023-06-26T00:55:11;26.23;;;22.48;;
22046;SDS011;11187;49.412;20.956;2023-06-26T00:57:59;24.17;;;21.85;;
22046;SDS011;11187;49.412;20.956;2023-06-26T01:00:32;22.60;;;20.60;;
22046;SDS011;11187;49.412;20.956;2023-06-26T01:03:27;30.15;;;21.35;;
22046;SDS011;11187;49.412;20.956;2023-06-26T01:06:23;22.70;;;20.55;;
22046;SDS011;11187;49.412;20.956;2023-06-26T01:08:59;24.73;;;21.92;;
22046;SDS011;11187;49.412;20.956;2023-06-26T01:11:46;23.33;;;20.80;;
22046;SDS011;11187;49.412;20.956;2023-06-26T01:14:19;22.75;;;20.67;;
22046;SDS011;11187;49.412;20.956;2023-06-26T01:17:14;22.10;;;19.90;;
22046;SDS011;11187;49.412;20.956;2023-06-26T01:20:08;26.25;;;21.02;;
22046;SDS011;11187;49.412;20.956;2023-06-26T01:25:37;25.33;;;20.60;;
22046;SDS011;11187;49.412;20.956;2023-06-26T01:28:24;23.80;;;21.40;;
22046;SDS011;11187;49.412;20.956;2023-06-26T01:31:12;23.70;;;21.40;;
22046;SDS011;11187;49.412;20.956;2023-06-26T01:33:46;23.48;;;20.33;;
22046;SDS011;11187;49.412;20.956;2023-06-26T01:36:34;25.42;;;20.75;;
22046;SDS011;11187;49.412;20.956;2023-06-26T01:39:08;23.58;;;21.13;;
22046;SDS011;11187;49.412;20.956;2023-06-26T01:42:02;24.42;;;21.58;;
22046;SDS011;11187;49.412;20.956;2023-06-26T01:44:56;23.55;;;21.17;;
22046;SDS011;11187;49.412;20.956;2023-06-26T01:47:50;24.63;;;22.52;;
22046;SDS011;11187;49.412;20.956;2023-06-26T01:50:28;26.73;;;23.02;;
22046;SDS011;11187;49.412;20.956;2023-06-26T01:53:25;47.92;;;23.70;;
22046;SDS011;11187;49.412;20.956;2023-06-26T01:56:31;26.33;;;23.65;;
22046;SDS011;11187;49.412;20.956;2023-06-26T01:59:27;33.17;;;23.75;;
22046;SDS011;11187;49.412;20.956;2023-06-26T02:02:06;26.85;;;24.25;;
22046;SDS011;11187;49.412;20.956;2023-06-26T02:04:54;49.08;;;24.65;;
22046;SDS011;11187;49.412;20.956;2023-06-26T02:07:27;25.55;;;23.00;;
22046;SDS011;11187;49.412;20.956;2023-06-26T02:10:14;26.52;;;24.10;;
22046;SDS011;11187;49.412;20.956;2023-06-26T02:12:47;33.17;;;24.85;;
22046;SDS011;11187;49.412;20.956;2023-06-26T02:15:34;25.48;;;22.83;;
22046;SDS011;11187;49.412;20.956;2023-06-26T02:18:07;28.63;;;25.50;;
22046;SDS011;11187;49.412;20.956;2023-06-26T02:20:54;29.02;;;21.98;;
22046;SDS011;11187;49.412;20.956;2023-06-26T02:23:27;27.88;;;23.05;;
22046;SDS011;11187;49.412;20.956;2023-06-26T02:26:14;24.85;;;22.23;;
22046;SDS011;11187;49.412;20.956;2023-06-26T02:28:47;26.15;;;23.15;;
22046;SDS011;11187;49.412;20.956;2023-06-26T02:31:41;34.08;;;24.48;;
22046;SDS011;11187;49.412;20.956;2023-06-26T02:34:14;28.95;;;23.65;;
22046;SDS011;11187;49.412;20.956;2023-06-26T02:37:08;29.13;;;24.40;;
22046;SDS011;11187;49.412;20.956;2023-06-26T02:40:02;27.08;;;22.52;;
22046;SDS011;11187;49.412;20.956;2023-06-26T02:42:36;28.10;;;23.15;;
22046;SDS011;11187;49.412;20.956;2023-06-26T02:45:23;27.90;;;24.42;;
22046;SDS011;11187;49.412;20.956;2023-06-26T02:47:56;27.90;;;24.63;;
22046;SDS011;11187;49.412;20.956;2023-06-26T02:50:43;27.05;;;24.33;;
22046;SDS011;11187;49.412;20.956;2023-06-26T02:53:18;26.73;;;24.20;;
22046;SDS011;11187;49.412;20.956;2023-06-26T02:56:12;30.65;;;25.50;;
22046;SDS011;11187;49.412;20.956;2023-06-26T02:59:06;31.70;;;26.67;;
22046;SDS011;11187;49.412;20.956;2023-06-26T03:02:00;35.92;;;25.58;;
22046;SDS011;11187;49.412;20.956;2023-06-26T03:04:33;28.27;;;25.27;;
22046;SDS011;11187;49.412;20.956;2023-06-26T03:07:20;39.97;;;25.70;;
22046;SDS011;11187;49.412;20.956;2023-06-26T03:09:53;27.52;;;24.48;;
22046;SDS011;11187;49.412;20.956;2023-06-26T03:12:47;27.67;;;23.00;;
22046;SDS011;11187;49.412;20.956;2023-06-26T03:15:41;40.88;;;23.92;;
22046;SDS011;11187;49.412;20.956;2023-06-26T03:18:14;32.22;;;24.70;;
22046;SDS011;11187;49.412;20.956;2023-06-26T03:21:01;43.80;;;24.08;;
22046;SDS011;11187;49.412;20.956;2023-06-26T03:23:36;59.30;;;24.35;;
22046;SDS011;11187;49.412;20.956;2023-06-26T03:26:23;30.67;;;23.40;;
22046;SDS011;11187;49.412;20.956;2023-06-26T03:28:59;106.07;;;26.08;;
22046;SDS011;11187;49.412;20.956;2023-06-26T03:31:46;41.58;;;24.20;;
22046;SDS011;11187;49.412;20.956;2023-06-26T03:34:19;29.63;;;23.48;;
22046;SDS011;11187;49.412;20.956;2023-06-26T03:37:06;43.30;;;24.10;;
22046;SDS011;11187;49.412;20.956;2023-06-26T03:39:39;42.08;;;25.35;;
22046;SDS011;11187;49.412;20.956;2023-06-26T03:42:26;35.95;;;25.30;;
22046;SDS011;11187;49.412;20.956;2023-06-26T03:44:59;26.67;;;23.98;;
22046;SDS011;11187;49.412;20.956;2023-06-26T03:47:53;29.90;;;27.13;;
22046;SDS011;11187;49.412;20.956;2023-06-26T03:50:47;30.70;;;27.58;;
22046;SDS011;11187;49.412;20.956;2023-06-26T03:53:20;26.85;;;24.33;;
22046;SDS011;11187;49.412;20.956;2023-06-26T03:56:07;29.75;;;25.05;;
22046;SDS011;11187;49.412;20.956;2023-06-26T03:58:54;28.70;;;25.02;;
22046;SDS011;11187;49.412;20.956;2023-06-26T04:01:48;28.15;;;24.70;;
22046;SDS011;11187;49.412;20.956;2023-06-26T04:04:21;28.27;;;25.33;;
22046;SDS011;11187;49.412;20.956;2023-06-26T04:07:15;28.60;;;23.65;;
22046;SDS011;11187;49.412;20.956;2023-06-26T04:10:10;26.67;;;23.90;;
22046;SDS011;11187;49.412;20.956;2023-06-26T04:12:43;27.05;;;24.10;;
22046;SDS011;11187;49.412;20.956;2023-06-26T04:15:30;28.50;;;25.52;;
22046;SDS011;11187;49.412;20.956;2023-06-26T04:18:04;32.75;;;23.35;;
22046;SDS011;11187;49.412;20.956;2023-06-26T04:23:57;29.85;;;24.88;;
22046;SDS011;11187;49.412;20.956;2023-06-26T04:26:44;29.63;;;23.02;;
22046;SDS011;11187;49.412;20.956;2023-06-26T04:29:18;28.70;;;23.20;;
22046;SDS011;11187;49.412;20.956;2023-06-26T04:32:05;27.85;;;22.58;;
22046;SDS011;11187;49.412;20.956;2023-06-26T04:34:39;25.10;;;21.40;;
22046;SDS011;11187;49.412;20.956;2023-06-26T04:37:27;25.40;;;22.85;;
22046;SDS011;11187;49.412;20.956;2023-06-26T04:40:00;29.38;;;23.05;;
22046;SDS011;11187;49.412;20.956;2023-06-26T04:42:49;23.95;;;21.85;;
22046;SDS011;11187;49.412;20.956;2023-06-26T04:45:22;22.60;;;20.50;;
22046;SDS011;11187;49.412;20.956;2023-06-26T04:48:09;24.13;;;21.63;;
22046;SDS011;11187;49.412;20.956;2023-06-26T04:50:42;24.37;;;21.83;;
22046;SDS011;11187;49.412;20.956;2023-06-26T04:53:40;23.33;;;21.17;;
22046;SDS011;11187;49.412;20.956;2023-06-26T04:56:13;23.90;;;19.92;;
22046;SDS011;11187;49.412;20.956;2023-06-26T04:59:00;22.08;;;19.67;;
22046;SDS011;11187;49.412;20.956;2023-06-26T05:01:33;30.15;;;23.25;;
22046;SDS011;11187;49.412;20.956;2023-06-26T05:04:20;22.85;;;20.38;;
22046;SDS011;11187;49.412;20.956;2023-06-26T05:06:53;24.27;;;19.38;;
22046;SDS011;11187;49.412;20.956;2023-06-26T05:09:47;21.35;;;18.77;;
22046;SDS011;11187;49.412;20.956;2023-06-26T05:12:20;25.33;;;21.08;;
22046;SDS011;11187;49.412;20.956;2023-06-26T05:15:07;26.90;;;20.20;;
22046;SDS011;11187;49.412;20.956;2023-06-26T05:17:40;31.23;;;20.08;;
22046;SDS011;11187;49.412;20.956;2023-06-26T05:20:34;24.70;;;22.25;;
22046;SDS011;11187;49.412;20.956;2023-06-26T05:23:09;24.50;;;21.77;;
22046;SDS011;11187;49.412;20.956;2023-06-26T05:26:04;23.13;;;20.80;;
22046;SDS011;11187;49.412;20.956;2023-06-26T05:28:37;20.75;;;18.85;;
22046;SDS011;11187;49.412;20.956;2023-06-26T05:31:34;22.98;;;20.98;;
22046;SDS011;11187;49.412;20.956;2023-06-26T05:34:33;24.17;;;21.45;;
22046;SDS011;11187;49.412;20.956;2023-06-26T05:37:06;21.55;;;19.65;;
22046;SDS011;11187;49.412;20.956;2023-06-26T05:39:54;23.40;;;20.90;;
22046;SDS011;11187;49.412;20.956;2023-06-26T05:42:27;24.42;;;21.83;;
22046;SDS011;11187;49.412;20.956;2023-06-26T05:45:14;22.30;;;20.10;;
22046;SDS011;11187;49.412;20.956;2023-06-26T05:47:47;23.33;;;20.95;;
22046;SDS011;11187;49.412;20.956;2023-06-26T05:50:34;22.33;;;20.00;;
22046;SDS011;11187;49.412;20.956;2023-06-26T05:53:09;22.55;;;20.45;;
22046;SDS011;11187;49.412;20.956;2023-06-26T05:55:56;23.20;;;21.02;;
22046;SDS011;11187;49.412;20.956;2023-06-26T05:58:29;23.13;;;21.10;;
22046;SDS011;11187;49.412;20.956;2023-06-26T06:01:23;20.35;;;18.52;;
22046;SDS011;11187;49.412;20.956;2023-06-26T06:03:56;21.98;;;19.73;;
22046;SDS011;11187;49.412;20.956;2023-06-26T06:06:50;20.42;;;18.38;;
22046;SDS011;11187;49.412;20.956;2023-06-26T06:09:44;22.13;;;20.23;;
22046;SDS011;11187;49.412;20.956;2023-06-26T06:12:17;26.33;;;22.13;;
22046;SDS011;11187;49.412;20.956;2023-06-26T06:15:05;27.75;;;24.92;;
22046;SDS011;11187;49.412;20.956;2023-06-26T06:17:38;22.48;;;20.67;;
22046;SDS011;11187;49.412;20.956;2023-06-26T06:20:25;24.05;;;21.73;;
22046;SDS011;11187;49.412;20.956;2023-06-26T06:22:58;21.00;;;18.80;;
22046;SDS011;11187;49.412;20.956;2023-06-26T06:25:52;20.10;;;18.00;;
22046;SDS011;11187;49.412;20.956;2023-06-26T06:28:46;21.17;;;18.80;;
22046;SDS011;11187;49.412;20.956;2023-06-26T06:31:19;21.70;;;20.00;;
22046;SDS011;11187;49.412;20.956;2023-06-26T06:34:08;21.70;;;19.75;;
22046;SDS011;11187;49.412;20.956;2023-06-26T06:36:42;19.40;;;17.60;;
22046;SDS011;11187;49.412;20.956;2023-06-26T06:39:29;18.48;;;16.88;;
22046;SDS011;11187;49.412;20.956;2023-06-26T06:42:02;19.73;;;17.35;;
22046;SDS011;11187;49.412;20.956;2023-06-26T06:44:49;21.80;;;19.33;;
22046;SDS011;11187;49.412;20.956;2023-06-26T06:47:22;20.98;;;17.42;;
22046;SDS011;11187;49.412;20.956;2023-06-26T06:50:09;23.67;;;19.02;;
22046;SDS011;11187;49.412;20.956;2023-06-26T06:52:42;18.90;;;17.50;;
22046;SDS011;11187;49.412;20.956;2023-06-26T06:55:30;21.38;;;16.75;;
22046;SDS011;11187;49.412;20.956;2023-06-26T06:58:03;28.02;;;19.98;;
22046;SDS011;11187;49.412;20.956;2023-06-26T07:00:50;18.45;;;16.80;;
22046;SDS011;11187;49.412;20.956;2023-06-26T07:03:25;19.33;;;17.27;;
22046;SDS011;11187;49.412;20.956;2023-06-26T07:06:18;18.90;;;17.40;;
22046;SDS011;11187;49.412;20.956;2023-06-26T07:09:12;26.15;;;17.80;;
22046;SDS011;11187;49.412;20.956;2023-06-26T07:11:45;20.00;;;16.95;;
22046;SDS011;11187;49.412;20.956;2023-06-26T07:14:32;24.70;;;17.30;;
22046;SDS011;11187;49.412;20.956;2023-06-26T07:17:05;19.65;;;17.08;;
22046;SDS011;11187;49.412;20.956;2023-06-26T07:19:52;19.45;;;17.67;;
22046;SDS011;11187;49.412;20.956;2023-06-26T07:22:25;19.17;;;16.65;;
22046;SDS011;11187;49.412;20.956;2023-06-26T07:25:12;19.45;;;17.63;;
22046;SDS011;11187;49.412;20.956;2023-06-26T07:27:45;18.50;;;14.30;;
22046;SDS011;11187;49.412;20.956;2023-06-26T07:30:32;18.98;;;17.33;;
22046;SDS011;11187;49.412;20.956;2023-06-26T07:33:06;23.38;;;17.63;;
22046;SDS011;11187;49.412;20.956;2023-06-26T07:35:52;19.17;;;16.88;;
22046;SDS011;11187;49.412;20.956;2023-06-26T07:38:25;23.98;;;16.30;;
22046;SDS011;11187;49.412;20.956;2023-06-26T07:41:19;25.83;;;17.02;;
22046;SDS011;11187;49.412;20.956;2023-06-26T07:44:13;19.00;;;17.52;;
22046;SDS011;11187;49.412;20.956;2023-06-26T07:46:47;19.02;;;17.33;;
22046;SDS011;11187;49.412;20.956;2023-06-26T07:49:40;22.42;;;20.63;;
22046;SDS011;11187;49.412;20.956;2023-06-26T07:52:14;22.95;;;21.02;;
22046;SDS011;11187;49.412;20.956;2023-06-26T07:55:08;17.05;;;15.45;;
22046;SDS011;11187;49.412;20.956;2023-06-26T07:58:02;20.25;;;18.30;;
22046;SDS011;11187;49.412;20.956;2023-06-26T08:00:56;17.35;;;15.68;;
22046;SDS011;11187;49.412;20.956;2023-06-26T08:03:29;19.02;;;16.98;;
22046;SDS011;11187;49.412;20.956;2023-06-26T08:06:16;19.55;;;17.38;;
22046;SDS011;11187;49.412;20.956;2023-06-26T08:08:49;33.53;;;18.67;;
22046;SDS011;11187;49.412;20.956;2023-06-26T08:11:36;19.77;;;18.00;;
22046;SDS011;11187;49.412;20.956;2023-06-26T08:14:10;20.75;;;15.02;;
22046;SDS011;11187;49.412;20.956;2023-06-26T08:17:03;19.17;;;17.42;;
22046;SDS011;11187;49.412;20.956;2023-06-26T08:19:57;17.55;;;15.85;;
22046;SDS011;11187;49.412;20.956;2023-06-26T08:22:30;18.35;;;16.65;;
22046;SDS011;11187;49.412;20.956;2023-06-26T08:25:17;22.73;;;18.75;;
22046;SDS011;11187;49.412;20.956;2023-06-26T08:27:50;20.13;;;18.15;;
22046;SDS011;11187;49.412;20.956;2023-06-26T08:30:37;18.92;;;17.33;;
22046;SDS011;11187;49.412;20.956;2023-06-26T08:33:11;20.65;;;18.60;;
22046;SDS011;11187;49.412;20.956;2023-06-26T08:35:57;22.30;;;20.08;;
22046;SDS011;11187;49.412;20.956;2023-06-26T08:38:30;24.58;;;19.83;;
22046;SDS011;11187;49.412;20.956;2023-06-26T08:41:19;18.60;;;17.10;;
22046;SDS011;11187;49.412;20.956;2023-06-26T08:43:53;17.30;;;15.60;;
22046;SDS011;11187;49.412;20.956;2023-06-26T08:46:39;18.60;;;16.65;;
22046;SDS011;11187;49.412;20.956;2023-06-26T08:49:14;18.48;;;16.63;;
22046;SDS011;11187;49.412;20.956;2023-06-26T08:52:10;18.85;;;17.15;;
22046;SDS011;11187;49.412;20.956;2023-06-26T08:54:52;16.83;;;15.43;;
22046;SDS011;11187;49.412;20.956;2023-06-26T08:57:51;18.73;;;15.77;;
22046;SDS011;11187;49.412;20.956;2023-06-26T09:00:44;17.55;;;15.85;;
22046;SDS011;11187;49.412;20.956;2023-06-26T09:03:18;19.75;;;17.95;;
22046;SDS011;11187;49.412;20.956;2023-06-26T09:06:05;20.35;;;18.52;;
22046;SDS011;11187;49.412;20.956;2023-06-26T09:08:38;21.05;;;17.48;;
22046;SDS011;11187;49.412;20.956;2023-06-26T09:11:32;20.17;;;17.10;;
22046;SDS011;11187;49.412;20.956;2023-06-26T09:14:26;20.90;;;17.95;;
22046;SDS011;11187;49.412;20.956;2023-06-26T09:17:00;19.55;;;16.80;;
22046;SDS011;11187;49.412;20.956;2023-06-26T09:19:46;17.88;;;16.02;;
22046;SDS011;11187;49.412;20.956;2023-06-26T09:22:21;24.17;;;17.33;;
22046;SDS011;11187;49.412;20.956;2023-06-26T09:25:09;17.02;;;15.63;;
22046;SDS011;11187;49.412;20.956;2023-06-26T09:27:43;18.95;;;17.30;;
22046;SDS011;11187;49.412;20.956;2023-06-26T09:30:31;19.35;;;17.75;;
22046;SDS011;11187;49.412;20.956;2023-06-26T09:36:09;18.75;;;16.90;;
22046;SDS011;11187;49.412;20.956;2023-06-26T09:38:52;17.58;;;15.75;;
22046;SDS011;11187;49.412;20.956;2023-06-26T09:41:38;17.48;;;15.77;;
22046;SDS011;11187;49.412;20.956;2023-06-26T09:44:14;20.05;;;18.30;;
22046;SDS011;11187;49.412;20.956;2023-06-26T09:47:03;19.23;;;17.35;;
22046;SDS011;11187;49.412;20.956;2023-06-26T09:49:40;19.70;;;17.48;;
22046;SDS011;11187;49.412;20.956;2023-06-26T09:52:28;18.73;;;17.00;;
22046;SDS011;11187;49.412;20.956;2023-06-26T09:55:08;18.08;;;16.42;;
22046;SDS011;11187;49.412;20.956;2023-06-26T09:58:03;20.60;;;18.67;;
22046;SDS011;11187;49.412;20.956;2023-06-26T10:00:38;18.30;;;16.80;;
22046;SDS011;11187;49.412;20.956;2023-06-26T10:03:25;27.00;;;20.30;;
22046;SDS011;11187;49.412;20.956;2023-06-26T10:05:59;19.45;;;17.60;;
22046;SDS011;11187;49.412;20.956;2023-06-26T10:08:53;18.65;;;16.85;;
22046;SDS011;11187;49.412;20.956;2023-06-26T10:11:56;23.67;;;21.73;;
22046;SDS011;11187;49.412;20.956;2023-06-26T10:14:51;23.08;;;20.73;;
22046;SDS011;11187;49.412;20.956;2023-06-26T10:17:46;19.73;;;17.98;;
22046;SDS011;11187;49.412;20.956;2023-06-26T10:20:41;19.80;;;18.10;;
22046;SDS011;11187;49.412;20.956;2023-06-26T10:23:36;21.05;;;19.23;;
22046;SDS011;11187;49.412;20.956;2023-06-26T10:26:35;22.88;;;20.55;;
22046;SDS011;11187;49.412;20.956;2023-06-26T10:29:12;21.17;;;19.23;;
22046;SDS011;11187;49.412;20.956;2023-06-26T10:32:10;19.48;;;17.75;;
22046;SDS011;11187;49.412;20.956;2023-06-26T10:35:06;18.67;;;17.00;;
22046;SDS011;11187;49.412;20.956;2023-06-26T10:37:47;18.13;;;16.48;;
22046;SDS011;11187;49.412;20.956;2023-06-26T10:40:45;19.90;;;18.02;;
22046;SDS011;11187;49.412;20.956;2023-06-26T10:43:40;20.88;;;18.83;;
22046;SDS011;11187;49.412;20.956;2023-06-26T10:46:17;19.05;;;17.42;;
22046;SDS011;11187;49.412;20.956;2023-06-26T10:49:05;18.00;;;16.45;;
22046;SDS011;11187;49.412;20.956;2023-06-26T10:51:49;18.75;;;16.85;;
22046;SDS011;11187;49.412;20.956;2023-06-26T10:54:38;18.77;;;17.20;;
22046;SDS011;11187;49.412;20.956;2023-06-26T10:57:12;18.33;;;14.20;;
22046;SDS011;11187;49.412;20.956;2023-06-26T11:00:17;18.75;;;15.20;;
22046;SDS011;11187;49.412;20.956;2023-06-26T11:02:52;18.27;;;16.70;;
22046;SDS011;11187;49.412;20.956;2023-06-26T11:05:40;19.67;;;18.02;;
22046;SDS011;11187;49.412;20.956;2023-06-26T11:08:14;18.85;;;17.27;;
22046;SDS011;11187;49.412;20.956;2023-06-26T11:11:00;20.42;;;17.63;;
22046;SDS011;11187;49.412;20.956;2023-06-26T11:13:34;17.63;;;15.82;;
22046;SDS011;11187;49.412;20.956;2023-06-26T11:16:21;20.67;;;18.60;;
22046;SDS011;11187;49.412;20.956;2023-06-26T11:18:57;18.45;;;17.10;;
22046;SDS011;11187;49.412;20.956;2023-06-26T11:21:51;19.25;;;17.58;;
22046;SDS011;11187;49.412;20.956;2023-06-26T11:24:51;19.38;;;17.70;;
22046;SDS011;11187;49.412;20.956;2023-06-26T11:30:39;20.45;;;18.58;;
22046;SDS011;11187;49.412;20.956;2023-06-26T11:33:14;21.17;;;19.65;;
22046;SDS011;11187;49.412;20.956;2023-06-26T11:36:09;18.15;;;16.70;;
22046;SDS011;11187;49.412;20.956;2023-06-26T11:38:43;20.10;;;18.42;;
22046;SDS011;11187;49.412;20.956;2023-06-26T11:41:30;20.80;;;19.02;;
22046;SDS011;11187;49.412;20.956;2023-06-26T11:44:08;19.05;;;17.58;;
22046;SDS011;11187;49.412;20.956;2023-06-26T11:46:59;19.67;;;18.08;;
22046;SDS011;11187;49.412;20.956;2023-06-26T11:49:33;19.75;;;17.85;;
22046;SDS011;11187;49.412;20.956;2023-06-26T11:52:20;18.75;;;17.25;;
22046;SDS011;11187;49.412;20.956;2023-06-26T11:54:54;18.50;;;16.88;;
22046;SDS011;11187;49.412;20.956;2023-06-26T11:57:40;19.83;;;18.17;;
22046;SDS011;11187;49.412;20.956;2023-06-26T12:00:40;21.45;;;19.73;;
22046;SDS011;11187;49.412;20.956;2023-06-26T12:03:14;19.27;;;17.67;;
22046;SDS011;11187;49.412;20.956;2023-06-26T12:06:00;18.05;;;16.42;;
22046;SDS011;11187;49.412;20.956;2023-06-26T12:08:36;19.20;;;17.50;;
22046;SDS011;11187;49.412;20.956;2023-06-26T12:11:29;19.35;;;17.85;;
22046;SDS011;11187;49.412;20.956;2023-06-26T12:14:24;19.45;;;17.70;;
22046;SDS011;11187;49.412;20.956;2023-06-26T12:17:09;17.98;;;16.58;;
22046;SDS011;11187;49.412;20.956;2023-06-26T12:19:56;19.50;;;17.65;;
22046;SDS011;11187;49.412;20.956;2023-06-26T12:22:36;17.55;;;16.05;;
22046;SDS011;11187;49.412;20.956;2023-06-26T12:25:23;17.42;;;16.05;;
22046;SDS011;11187;49.412;20.956;2023-06-26T12:27:57;18.20;;;16.88;;
22046;SDS011;11187;49.412;20.956;2023-06-26T12:34:15;20.75;;;19.05;;
22046;SDS011;11187;49.412;20.956;2023-06-26T12:37:10;20.00;;;17.63;;
22046;SDS011;11187;49.412;20.956;2023-06-26T12:39:48;19.80;;;18.25;;
22046;SDS011;11187;49.412;20.956;2023-06-26T12:42:35;21.45;;;19.75;;
22046;SDS011;11187;49.412;20.956;2023-06-26T12:45:12;21.73;;;20.23;;
22046;SDS011;11187;49.412;20.956;2023-06-26T12:48:14;20.70;;;19.20;;
22046;SDS011;11187;49.412;20.956;2023-06-26T12:51:09;21.40;;;19.90;;
22046;SDS011;11187;49.412;20.956;2023-06-26T12:54:03;19.98;;;18.30;;
22046;SDS011;11187;49.412;20.956;2023-06-26T12:56:37;18.38;;;16.88;;
22046;SDS011;11187;49.412;20.956;2023-06-26T12:59:23;19.77;;;18.38;;
22046;SDS011;11187;49.412;20.956;2023-06-26T13:01:57;20.77;;;19.20;;
22046;SDS011;11187;49.412;20.956;2023-06-26T13:04:44;21.45;;;19.75;;
22046;SDS011;11187;49.412;20.956;2023-06-26T13:07:18;19.88;;;18.15;;
22046;SDS011;11187;49.412;20.956;2023-06-26T13:10:05;21.30;;;19.48;;
22046;SDS011;11187;49.412;20.956;2023-06-26T13:12:39;21.70;;;20.10;;
22046;SDS011;11187;49.412;20.956;2023-06-26T13:15:25;23.17;;;21.02;;
22046;SDS011;11187;49.412;20.956;2023-06-26T13:18:02;19.25;;;17.65;;
22046;SDS011;11187;49.412;20.956;2023-06-26T13:20:55;18.55;;;17.08;;
22046;SDS011;11187;49.412;20.956;2023-06-26T13:23:29;19.08;;;17.42;;
22046;SDS011;11187;49.412;20.956;2023-06-26T13:26:15;18.02;;;16.73;;
22046;SDS011;11187;49.412;20.956;2023-06-26T13:29:02;22.80;;;21.20;;
22046;SDS011;11187;49.412;20.956;2023-06-26T13:31:56;20.25;;;18.63;;
22046;SDS011;11187;49.412;20.956;2023-06-26T13:34:50;21.83;;;20.00;;
22046;SDS011;11187;49.412;20.956;2023-06-26T13:37:44;20.60;;;19.02;;
22046;SDS011;11187;49.412;20.956;2023-06-26T13:40:20;22.02;;;20.33;;
22046;SDS011;11187;49.412;20.956;2023-06-26T13:43:06;19.25;;;17.85;;
22046;SDS011;11187;49.412;20.956;2023-06-26T13:45:40;18.60;;;17.00;;
22046;SDS011;11187;49.412;20.956;2023-06-26T13:48:27;18.38;;;16.98;;
22046;SDS011;11187;49.412;20.956;2023-06-26T13:51:01;20.30;;;18.60;;
22046;SDS011;11187;49.412;20.956;2023-06-26T13:53:54;19.10;;;17.50;;
22046;SDS011;11187;49.412;20.956;2023-06-26T13:56:48;19.08;;;17.67;;
22046;SDS011;11187;49.412;20.956;2023-06-26T13:59:22;20.75;;;19.20;;
22046;SDS011;11187;49.412;20.956;2023-06-26T14:02:08;18.33;;;16.85;;
22046;SDS011;11187;49.412;20.956;2023-06-26T14:04:42;22.27;;;20.13;;
22046;SDS011;11187;49.412;20.956;2023-06-26T14:07:35;22.73;;;20.75;;
22046;SDS011;11187;49.412;20.956;2023-06-26T14:10:29;22.20;;;19.90;;
22046;SDS011;11187;49.412;20.956;2023-06-26T14:13:03;18.95;;;17.42;;
22046;SDS011;11187;49.412;20.956;2023-06-26T14:15:54;18.80;;;17.35;;
22046;SDS011;11187;49.412;20.956;2023-06-26T14:18:29;19.52;;;17.85;;
22046;SDS011;11187;49.412;20.956;2023-06-26T14:21:15;22.38;;;20.65;;
22046;SDS011;11187;49.412;20.956;2023-06-26T14:23:49;20.42;;;18.73;;
22046;SDS011;11187;49.412;20.956;2023-06-26T14:26:35;18.08;;;16.67;;
22046;SDS011;11187;49.412;20.956;2023-06-26T14:29:10;20.50;;;18.80;;
22046;SDS011;11187;49.412;20.956;2023-06-26T14:31:56;20.02;;;18.42;;
22046;SDS011;11187;49.412;20.956;2023-06-26T14:34:30;21.92;;;20.02;;
22046;SDS011;11187;49.412;20.956;2023-06-26T14:37:16;20.70;;;18.85;;
22046;SDS011;11187;49.412;20.956;2023-06-26T14:39:52;22.05;;;20.25;;
22046;SDS011;11187;49.412;20.956;2023-06-26T14:42:38;18.38;;;17.08;;
22046;SDS011;11187;49.412;20.956;2023-06-26T14:45:12;18.92;;;17.27;;
22046;SDS011;11187;49.412;20.956;2023-06-26T14:47:59;19.98;;;18.15;;
22046;SDS011;11187;49.412;20.956;2023-06-26T14:50:33;18.85;;;17.25;;
22046;SDS011;11187;49.412;20.956;2023-06-26T14:53:26;21.20;;;19.40;;
22046;SDS011;11187;49.412;20.956;2023-06-26T14:56:20;21.75;;;19.98;;
22046;SDS011;11187;49.412;20.956;2023-06-26T14:58:54;18.00;;;16.50;;
22046;SDS011;11187;49.412;20.956;2023-06-26T15:01:41;19.38;;;18.00;;
22046;SDS011;11187;49.412;20.956;2023-06-26T15:04:15;19.95;;;18.35;;
22046;SDS011;11187;49.412;20.956;2023-06-26T15:07:01;19.33;;;17.85;;
22046;SDS011;11187;49.412;20.956;2023-06-26T15:09:35;17.42;;;15.98;;
22046;SDS011;11187;49.412;20.956;2023-06-26T15:12:21;22.02;;;19.92;;
22046;SDS011;11187;49.412;20.956;2023-06-26T15:14:56;23.35;;;21.05;;
22046;SDS011;11187;49.412;20.956;2023-06-26T15:17:42;22.27;;;20.23;;
22046;SDS011;11187;49.412;20.956;2023-06-26T15:20:16;21.10;;;19.58;;
22046;SDS011;11187;49.412;20.956;2023-06-26T15:23:02;19.48;;;17.67;;
22046;SDS011;11187;49.412;20.956;2023-06-26T15:25:36;19.90;;;18.30;;
22046;SDS011;11187;49.412;20.956;2023-06-26T15:28:22;19.30;;;17.60;;
22046;SDS011;11187;49.412;20.956;2023-06-26T15:30:56;19.73;;;18.20;;
22046;SDS011;11187;49.412;20.956;2023-06-26T15:33:42;17.88;;;16.38;;
22046;SDS011;11187;49.412;20.956;2023-06-26T15:36:16;19.33;;;17.90;;
22046;SDS011;11187;49.412;20.956;2023-06-26T15:39:02;21.80;;;19.88;;
22046;SDS011;11187;49.412;20.956;2023-06-26T15:41:36;20.25;;;18.67;;
22046;SDS011;11187;49.412;20.956;2023-06-26T15:44:22;19.40;;;17.98;;
22046;SDS011;11187;49.412;20.956;2023-06-26T15:46:56;19.27;;;17.67;;
22046;SDS011;11187;49.412;20.956;2023-06-26T15:49:42;17.50;;;16.20;;
22046;SDS011;11187;49.412;20.956;2023-06-26T15:52:17;19.05;;;17.65;;
22046;SDS011;11187;49.412;20.956;2023-06-26T15:55:10;19.08;;;17.67;;
22046;SDS011;11187;49.412;20.956;2023-06-26T15:58:04;19.45;;;18.05;;